createdAt,value
2018-12-24T00:01:05.712Z,4.64
2018-12-24T00:03:36.803Z,4.68
2018-12-24T00:06:07.868Z,4.68
2018-12-24T00:08:38.981Z,4.66
2018-12-24T00:11:10.061Z,4.66
2018-12-24T00:13:41.563Z,4.68
2018-12-24T00:16:14.043Z,4.63
2018-12-24T00:18:45.188Z,4.64
2018-12-24T00:21:16.308Z,4.64
2018-12-24T00:23:48.254Z,4.64
2018-12-24T00:26:19.519Z,4.64
2018-12-24T00:28:51.097Z,4.66
2018-12-24T00:31:22.164Z,4.62
2018-12-24T00:33:53.271Z,4.61
2018-12-24T00:36:24.773Z,4.61
2018-12-24T00:38:56.469Z,4.63
2018-12-24T00:41:27.473Z,4.58
2018-12-24T00:44:02.077Z,4.59
2018-12-24T00:46:33.031Z,4.60
2018-12-24T00:49:04.243Z,4.57
2018-12-24T00:51:35.340Z,4.57
2018-12-24T00:54:06.381Z,4.59
2018-12-24T00:56:37.490Z,4.55
2018-12-24T00:59:08.564Z,4.54
2018-12-24T01:01:39.660Z,4.54
2018-12-24T01:04:10.736Z,4.56
2018-12-24T01:06:41.877Z,4.57
2018-12-24T01:09:13.047Z,4.55
2018-12-24T01:11:44.067Z,4.56
2018-12-24T01:14:15.088Z,4.51
2018-12-24T01:16:46.395Z,4.49
2018-12-24T01:19:17.431Z,4.52
2018-12-24T01:21:48.544Z,4.53
2018-12-24T01:24:19.576Z,4.45
2018-12-24T01:26:50.751Z,4.42
2018-12-24T01:29:21.998Z,4.43
2018-12-24T01:31:53.181Z,4.47
2018-12-24T01:34:24.130Z,4.46
2018-12-24T01:36:55.114Z,4.44
2018-12-24T01:39:26.038Z,4.46
2018-12-24T01:41:57.098Z,4.40
2018-12-24T01:44:28.353Z,4.42
2018-12-24T01:46:59.397Z,4.41
2018-12-24T01:49:30.368Z,4.42
2018-12-24T01:52:01.258Z,4.43
2018-12-24T01:54:32.213Z,4.40
2018-12-24T01:57:03.349Z,4.39
2018-12-24T01:59:34.434Z,4.37
2018-12-24T02:02:05.421Z,4.33
2018-12-24T02:04:36.563Z,4.34
2018-12-24T02:07:07.594Z,4.34
2018-12-24T02:09:38.693Z,4.29
2018-12-24T02:12:09.722Z,4.29
2018-12-24T02:14:40.894Z,4.27
2018-12-24T02:17:11.827Z,4.23
2018-12-24T02:19:42.983Z,4.23
2018-12-24T02:22:13.889Z,4.26
2018-12-24T02:24:44.859Z,4.22
2018-12-24T02:27:15.825Z,4.22
2018-12-24T02:29:46.777Z,4.25
2018-12-24T02:32:17.850Z,4.29
2018-12-24T02:34:49.002Z,4.26
2018-12-24T02:37:20.259Z,4.27
2018-12-24T02:39:51.357Z,4.23
2018-12-24T02:42:22.514Z,4.22
2018-12-24T02:44:53.463Z,4.24
2018-12-24T02:47:24.593Z,4.24
2018-12-24T02:49:55.510Z,4.21
2018-12-24T02:52:26.571Z,4.20
2018-12-24T02:54:57.845Z,4.20
2018-12-24T02:57:28.937Z,4.20
2018-12-24T02:59:59.883Z,4.19
2018-12-24T03:02:30.967Z,4.20
2018-12-24T03:05:02.013Z,4.22
2018-12-24T03:07:33.084Z,4.20
2018-12-24T03:10:04.366Z,4.20
2018-12-24T03:12:35.388Z,4.19
2018-12-24T03:15:06.980Z,4.15
2018-12-24T03:17:38.039Z,4.13
2018-12-24T03:20:09.510Z,4.10
2018-12-24T03:22:40.558Z,4.09
2018-12-24T03:25:11.781Z,4.06
2018-12-24T03:27:42.998Z,4.04
2018-12-24T03:30:13.976Z,4.01
2018-12-24T03:32:44.983Z,4.01
2018-12-24T03:35:16.162Z,3.99
2018-12-24T03:37:47.179Z,3.97
2018-12-24T03:40:18.181Z,3.97
2018-12-24T03:42:49.154Z,3.92
2018-12-24T03:45:20.178Z,3.87
2018-12-24T03:47:51.112Z,3.85
2018-12-24T03:50:22.228Z,3.85
2018-12-24T03:52:53.188Z,3.82
2018-12-24T03:55:24.158Z,3.79
2018-12-24T03:57:55.099Z,3.78
2018-12-24T04:00:26.079Z,3.76
2018-12-24T04:02:57.159Z,3.71
2018-12-24T04:05:28.245Z,3.38
2018-12-24T04:07:59.284Z,3.25
2018-12-24T04:10:30.278Z,3.08
2018-12-24T04:13:01.159Z,3.01
2018-12-24T04:15:32.113Z,2.88
2018-12-24T04:18:03.077Z,2.66
2018-12-24T04:20:34.133Z,2.56
2018-12-24T04:23:05.214Z,2.56
2018-12-24T04:25:41.104Z,2.53
2018-12-24T04:28:12.156Z,2.50
2018-12-24T04:30:43.177Z,2.48
2018-12-24T04:33:14.178Z,2.45
2018-12-24T04:35:45.123Z,2.40
2018-12-24T04:38:16.133Z,2.35
2018-12-24T04:40:47.297Z,2.35
2018-12-24T04:43:18.353Z,2.29
2018-12-24T04:45:49.463Z,2.29
2018-12-24T04:48:20.544Z,2.26
2018-12-24T04:50:51.453Z,2.18
2018-12-24T04:53:22.614Z,2.12
2018-12-24T04:55:53.875Z,2.05
2018-12-24T04:58:25.097Z,1.98
2018-12-24T05:00:56.508Z,1.84
2018-12-24T05:03:27.595Z,1.61
2018-12-24T05:05:58.734Z,1.56
2018-12-24T05:08:29.800Z,1.46
2018-12-24T05:11:00.682Z,1.39
2018-12-24T05:13:31.610Z,1.34
2018-12-24T05:16:02.754Z,1.27
2018-12-24T05:18:33.737Z,1.21
2018-12-24T05:21:04.768Z,1.17
2018-12-24T05:23:35.688Z,1.13
2018-12-24T05:26:06.763Z,1.13
2018-12-24T05:28:37.848Z,1.01
2018-12-24T05:31:08.748Z,0.96
2018-12-24T05:33:39.809Z,0.94
2018-12-24T05:36:10.953Z,0.93
2018-12-24T05:38:41.864Z,0.91
2018-12-24T05:41:13.024Z,0.99
2018-12-24T05:43:49.340Z,0.94
2018-12-24T05:46:17.071Z,0.88
2018-12-24T05:48:48.122Z,0.83
2018-12-24T05:51:19.433Z,0.86
2018-12-24T05:53:50.338Z,0.89
2018-12-24T05:56:21.359Z,0.90
2018-12-24T05:58:52.448Z,0.91
2018-12-24T06:01:23.518Z,0.91
2018-12-24T06:03:54.489Z,0.92
2018-12-24T06:06:25.630Z,0.94
2018-12-24T06:08:56.694Z,0.93
2018-12-24T06:11:27.660Z,0.92
2018-12-24T06:13:58.939Z,0.92
2018-12-24T06:16:30.045Z,0.94
2018-12-24T06:19:01.058Z,0.92
2018-12-24T06:21:32.065Z,0.94
2018-12-24T06:24:03.274Z,0.93
2018-12-24T06:26:34.265Z,0.92
2018-12-24T06:29:05.259Z,0.92
2018-12-24T06:31:36.281Z,0.95
2018-12-24T06:34:07.350Z,0.93
2018-12-24T06:36:38.565Z,0.92
2018-12-24T06:39:10.215Z,0.92
2018-12-24T06:41:41.194Z,0.92
2018-12-24T06:44:12.339Z,0.87
2018-12-24T06:46:43.371Z,0.89
2018-12-24T06:49:14.422Z,0.87
2018-12-24T06:51:45.350Z,0.88
2018-12-24T06:54:16.334Z,0.87
2018-12-24T06:56:47.315Z,0.86
2018-12-24T06:59:18.634Z,0.88
2018-12-24T07:01:49.598Z,0.90
2018-12-24T07:04:20.588Z,0.90
2018-12-24T07:06:51.789Z,0.87
2018-12-24T07:09:22.839Z,0.90
2018-12-24T07:11:53.799Z,0.89
2018-12-24T07:14:24.835Z,0.89
2018-12-24T07:16:55.902Z,0.94
2018-12-24T07:19:26.997Z,0.93
2018-12-24T07:21:57.992Z,0.97
2018-12-24T07:24:29.070Z,0.96
2018-12-24T07:27:00.189Z,0.96
2018-12-24T07:29:31.291Z,0.99
2018-12-24T07:32:02.181Z,1.01
2018-12-24T07:34:33.145Z,1.03
2018-12-24T07:37:04.452Z,0.98
2018-12-24T07:39:35.709Z,0.99
2018-12-24T07:42:06.840Z,0.96
2018-12-24T07:44:37.849Z,1.02
2018-12-24T07:47:09.085Z,1.03
2018-12-24T07:49:40.364Z,1.05
2018-12-24T07:52:11.358Z,1.04
2018-12-24T07:54:42.345Z,1.03
2018-12-24T07:57:13.460Z,1.04
2018-12-24T07:59:44.894Z,1.11
2018-12-24T08:02:15.845Z,1.07
2018-12-24T08:04:47.081Z,1.10
2018-12-24T08:07:18.004Z,1.06
2018-12-24T08:09:48.924Z,1.10
2018-12-24T08:12:19.802Z,1.10
2018-12-24T08:14:50.915Z,1.11
2018-12-24T08:17:22.078Z,1.11
2018-12-24T08:19:53.309Z,1.14
2018-12-24T08:22:24.428Z,1.16
2018-12-24T08:24:55.442Z,1.13
2018-12-24T08:27:26.689Z,1.13
2018-12-24T08:29:57.640Z,1.20
2018-12-24T08:32:28.711Z,1.18
2018-12-24T08:34:59.834Z,1.13
2018-12-24T08:37:30.879Z,1.16
2018-12-24T08:40:01.812Z,1.13
2018-12-24T08:42:33.130Z,1.15
2018-12-24T08:45:04.040Z,1.18
2018-12-24T08:47:35.094Z,1.14
2018-12-24T08:50:06.569Z,1.13
2018-12-24T08:52:37.770Z,1.09
2018-12-24T08:55:08.974Z,1.09
2018-12-24T08:57:40.019Z,1.03
2018-12-24T09:00:11.022Z,1.01
2018-12-24T09:02:42.101Z,0.96
2018-12-24T09:05:13.312Z,0.96
2018-12-24T09:07:44.363Z,0.97
2018-12-24T09:10:15.424Z,0.93
2018-12-24T09:12:46.549Z,0.99
2018-12-24T09:15:17.781Z,1.00
2018-12-24T09:17:48.784Z,0.96
2018-12-24T09:20:19.821Z,0.96
2018-12-24T09:22:51.144Z,0.97
2018-12-24T09:25:22.225Z,1.03
2018-12-24T09:27:53.215Z,0.93
2018-12-24T09:30:25.279Z,0.94
2018-12-24T09:32:56.355Z,0.91
2018-12-24T09:35:27.274Z,0.94
2018-12-24T09:37:58.165Z,0.99
2018-12-24T09:40:29.212Z,0.99
2018-12-24T09:43:00.221Z,1.00
2018-12-24T09:45:31.294Z,0.94
2018-12-24T09:48:02.314Z,0.91
2018-12-24T09:50:33.540Z,0.97
2018-12-24T09:53:04.473Z,1.00
2018-12-24T09:55:35.693Z,0.98
2018-12-24T09:58:06.873Z,0.91
2018-12-24T10:00:37.963Z,0.91
2018-12-24T10:03:21.750Z,0.95
2018-12-24T10:05:54.945Z,0.88
2018-12-24T10:08:26.850Z,0.84
2018-12-24T10:10:57.906Z,0.78
2018-12-24T10:13:28.806Z,0.77
2018-12-24T10:15:59.870Z,0.81
2018-12-24T10:18:31.056Z,0.77
2018-12-24T10:21:02.151Z,0.77
2018-12-24T10:23:33.305Z,0.71
2018-12-24T10:26:04.341Z,0.73
2018-12-24T10:28:35.405Z,0.70
2018-12-24T10:31:06.422Z,0.66
2018-12-24T10:33:37.742Z,0.62
2018-12-24T10:36:08.710Z,0.54
2018-12-24T10:38:39.635Z,0.48
2018-12-24T10:41:20.275Z,0.48
2018-12-24T10:43:51.251Z,0.42
2018-12-24T10:46:22.249Z,0.37
2018-12-24T10:48:53.260Z,0.38
2018-12-24T10:51:24.304Z,0.35
2018-12-24T10:53:55.335Z,0.33
2018-12-24T10:56:26.389Z,0.32
2018-12-24T10:58:57.527Z,0.30
2018-12-24T11:01:28.645Z,0.29
2018-12-24T11:03:59.825Z,0.36
2018-12-24T11:06:30.940Z,0.30
2018-12-24T11:09:02.049Z,0.28
2018-12-24T11:11:34.883Z,0.29
2018-12-24T11:14:05.830Z,0.24
2018-12-24T11:16:36.904Z,0.22
2018-12-24T11:19:08.067Z,0.27
2018-12-24T11:21:39.113Z,0.16
2018-12-24T11:24:10.129Z,0.23
2018-12-24T11:26:41.139Z,0.26
2018-12-24T11:29:12.145Z,0.27
2018-12-24T11:31:43.695Z,0.33
2018-12-24T11:34:14.835Z,0.24
2018-12-24T11:36:45.839Z,0.23
2018-12-24T11:39:16.775Z,0.27
2018-12-24T11:41:47.845Z,0.27
2018-12-24T11:44:19.316Z,0.24
2018-12-24T11:46:50.276Z,0.24
2018-12-24T11:49:21.616Z,0.23
2018-12-24T11:51:52.661Z,0.25
2018-12-24T11:54:23.739Z,0.32
2018-12-24T11:56:54.729Z,0.27
2018-12-24T11:59:25.736Z,0.26
2018-12-24T12:01:56.860Z,0.25
2018-12-24T12:04:27.955Z,0.26
2018-12-24T12:06:58.911Z,0.21
2018-12-24T12:09:30.264Z,0.23
2018-12-24T12:12:01.135Z,0.27
2018-12-24T12:14:32.128Z,0.23
2018-12-24T12:17:03.115Z,0.21
2018-12-24T12:19:34.221Z,0.26
2018-12-24T12:22:05.321Z,0.25
2018-12-24T12:25:22.494Z,0.31
2018-12-24T12:27:52.845Z,0.33
2018-12-24T12:30:23.220Z,0.29
2018-12-24T12:32:53.634Z,0.24
2018-12-24T12:35:24.203Z,0.21
2018-12-24T12:37:54.492Z,0.22
2018-12-24T12:40:25.052Z,0.20
2018-12-24T12:42:55.543Z,0.22
2018-12-24T12:45:26.319Z,0.21
2018-12-24T12:47:57.530Z,0.20
2018-12-24T12:50:28.170Z,0.19
2018-12-24T12:52:58.734Z,0.15
2018-12-24T12:55:29.314Z,0.13
2018-12-24T12:57:59.818Z,0.11
2018-12-24T13:00:30.424Z,0.07
2018-12-24T13:03:01.307Z,0.02
2018-12-24T13:05:32.033Z,0.03
2018-12-24T13:08:02.653Z,0.04
2018-12-24T13:10:33.277Z,0.03
2018-12-24T13:13:03.756Z,0.03
2018-12-24T13:15:34.205Z,0.03
2018-12-24T13:18:04.811Z,0.02
2018-12-24T13:20:35.395Z,0.03
2018-12-24T13:23:05.995Z,0.03
2018-12-24T13:25:36.556Z,0.05
2018-12-24T13:28:06.940Z,0.10
2018-12-24T13:30:37.333Z,0.12
2018-12-24T13:33:07.825Z,0.14
2018-12-24T13:35:38.245Z,0.16
2018-12-24T13:38:08.775Z,0.18
2018-12-24T13:40:40.014Z,0.26
2018-12-24T13:43:10.448Z,0.24
2018-12-24T13:45:41.072Z,0.25
2018-12-24T13:48:11.565Z,0.24
2018-12-24T13:50:41.982Z,0.21
2018-12-24T13:53:12.473Z,0.21
2018-12-24T13:55:42.945Z,0.12
2018-12-24T13:58:13.501Z,0.02
2018-12-24T14:00:44.099Z,0.02
2018-12-24T14:03:14.567Z,-0.02
2018-12-24T14:05:44.986Z,-0.06
2018-12-24T14:08:15.490Z,-0.09
2018-12-24T14:10:45.945Z,-0.11
2018-12-24T14:13:16.423Z,-0.13
2018-12-24T14:15:46.884Z,-0.10
2018-12-24T14:18:17.529Z,-0.16
2018-12-24T14:20:48.076Z,-0.21
2018-12-24T14:23:18.605Z,-0.18
2018-12-24T14:25:49.139Z,-0.23
2018-12-24T14:28:19.739Z,-0.30
2018-12-24T14:30:50.315Z,-0.33
2018-12-24T14:33:20.785Z,-0.33
2018-12-24T14:35:51.485Z,-0.37
2018-12-24T14:38:22.128Z,-0.37
2018-12-24T14:40:52.555Z,-0.33
2018-12-24T14:43:23.128Z,-0.36
2018-12-24T14:45:53.565Z,-0.36
2018-12-24T14:48:24.226Z,-0.31
2018-12-24T14:50:54.749Z,-0.32
2018-12-24T14:53:25.293Z,-0.30
2018-12-24T14:55:55.818Z,-0.28
2018-12-24T14:58:26.431Z,-0.27
2018-12-24T15:00:56.897Z,-0.25
2018-12-24T15:03:27.259Z,-0.25
2018-12-24T15:05:57.641Z,-0.17
2018-12-24T15:08:28.065Z,-0.15
2018-12-24T15:10:58.610Z,-0.12
2018-12-24T15:13:29.088Z,-0.11
2018-12-24T15:15:59.470Z,-0.15
2018-12-24T15:18:30.119Z,-0.15
2018-12-24T15:21:00.735Z,-0.14
2018-12-24T15:23:31.119Z,-0.11
2018-12-24T15:26:01.766Z,-0.12
2018-12-24T15:28:32.156Z,-0.11
2018-12-24T15:31:02.633Z,-0.09
2018-12-24T15:33:33.219Z,-0.11
2018-12-24T15:36:03.745Z,-0.11
2018-12-24T15:38:34.216Z,-0.13
2018-12-24T15:41:04.790Z,-0.13
2018-12-24T15:43:35.438Z,-0.13
2018-12-24T15:46:05.994Z,-0.14
2018-12-24T15:48:36.465Z,-0.14
2018-12-24T15:51:06.915Z,-0.14
2018-12-24T15:53:37.460Z,-0.14
2018-12-24T15:56:08.045Z,-0.17
2018-12-24T15:58:38.560Z,-0.14
2018-12-24T16:01:09.063Z,-0.18
2018-12-24T16:03:39.650Z,-0.19
2018-12-24T16:06:10.105Z,-0.17
2018-12-24T16:08:40.520Z,-0.18
2018-12-24T16:11:10.972Z,-0.20
2018-12-24T16:13:41.410Z,-0.15
2018-12-24T16:16:11.850Z,-0.16
2018-12-24T16:18:42.246Z,-0.17
2018-12-24T16:21:12.965Z,-0.18
2018-12-24T16:23:43.495Z,-0.19
2018-12-24T16:26:16.303Z,-0.20
2018-12-24T16:28:46.420Z,-0.16
2018-12-24T16:31:16.800Z,-0.18
2018-12-24T16:33:47.380Z,-0.21
2018-12-24T16:36:18.036Z,-0.21
2018-12-24T16:38:48.561Z,-0.23
2018-12-24T16:41:19.003Z,-0.24
2018-12-24T16:43:49.562Z,-0.20
2018-12-24T16:46:20.025Z,-0.26
2018-12-24T16:48:50.496Z,-0.24
2018-12-24T16:51:20.906Z,-0.23
2018-12-24T16:53:51.845Z,-0.21
2018-12-24T16:56:22.446Z,-0.29
2018-12-24T16:58:52.865Z,-0.29
2018-12-24T17:01:23.467Z,-0.31
2018-12-24T17:03:53.888Z,-0.29
2018-12-24T17:06:24.385Z,-0.37
2018-12-24T17:08:54.823Z,-0.32
2018-12-24T17:11:25.353Z,-0.37
2018-12-24T17:13:55.975Z,-0.41
2018-12-24T17:16:26.535Z,-0.41
2018-12-24T17:18:57.056Z,-0.45
2018-12-24T17:21:27.651Z,-0.41
2018-12-24T17:23:58.035Z,-0.44
2018-12-24T17:26:28.621Z,-0.44
2018-12-24T17:28:59.353Z,-0.44
2018-12-24T17:31:29.870Z,-0.45
2018-12-24T17:34:01.159Z,-0.46
2018-12-24T17:36:31.723Z,-0.50
2018-12-24T17:39:02.104Z,-0.47
2018-12-24T17:41:32.558Z,-0.49
2018-12-24T17:44:03.104Z,-0.47
2018-12-24T17:46:33.703Z,-0.47
2018-12-24T17:49:04.321Z,-0.48
2018-12-24T17:51:34.906Z,-0.47
2018-12-24T17:54:05.561Z,-0.46
2018-12-24T17:56:36.019Z,-0.46
2018-12-24T17:59:06.501Z,-0.46
2018-12-24T18:01:36.976Z,-0.48
2018-12-24T18:04:09.112Z,-0.49
2018-12-24T18:06:39.755Z,-0.50
2018-12-24T18:09:10.283Z,-0.48
2018-12-24T18:11:40.785Z,-0.47
2018-12-24T18:14:11.195Z,-0.50
2018-12-24T18:16:41.789Z,-0.49
2018-12-24T18:19:12.351Z,-0.49
2018-12-24T18:21:42.799Z,-0.49
2018-12-24T18:24:13.270Z,-0.49
2018-12-24T18:26:44.080Z,-0.51
2018-12-24T18:29:14.623Z,-0.54
2018-12-24T18:31:45.148Z,-0.51
2018-12-24T18:34:15.619Z,-0.50
2018-12-24T18:36:46.103Z,-0.50
2018-12-24T18:39:16.561Z,-0.49
2018-12-24T18:41:46.934Z,-0.44
2018-12-24T18:44:17.544Z,-0.44
2018-12-24T18:46:48.033Z,-0.41
2018-12-24T18:49:18.472Z,-0.42
2018-12-24T18:51:48.954Z,-0.41
2018-12-24T18:54:19.578Z,-0.45
2018-12-24T18:56:50.054Z,-0.44
2018-12-24T18:59:20.596Z,-0.46
2018-12-24T19:01:51.043Z,-0.46
2018-12-24T19:04:21.668Z,-0.45
2018-12-24T19:06:52.139Z,-0.47
2018-12-24T19:09:22.674Z,-0.49
2018-12-24T19:11:53.204Z,-0.42
2018-12-24T19:14:23.613Z,-0.47
2018-12-24T19:16:54.201Z,-0.44
2018-12-24T19:19:24.742Z,-0.45
2018-12-24T19:21:55.515Z,-0.45
2018-12-24T19:24:26.094Z,-0.46
2018-12-24T19:26:56.775Z,-0.45
2018-12-24T19:29:27.312Z,-0.41
2018-12-24T19:31:57.925Z,-0.42
2018-12-24T19:34:28.521Z,-0.39
2018-12-24T19:36:59.154Z,-0.36
2018-12-24T19:39:29.703Z,-0.43
2018-12-24T19:42:00.149Z,-0.41
2018-12-24T19:44:30.598Z,-0.37
2018-12-24T19:47:01.179Z,-0.37
2018-12-24T19:49:31.810Z,-0.40
2018-12-24T19:52:02.275Z,-0.41
2018-12-24T19:54:32.763Z,-0.44
2018-12-24T19:57:03.234Z,-0.42
2018-12-24T19:59:33.711Z,-0.50
2018-12-24T20:02:04.260Z,-0.51
2018-12-24T20:04:34.774Z,-0.54
2018-12-24T20:07:05.211Z,-0.57
2018-12-24T20:09:35.629Z,-0.60
2018-12-24T20:12:08.260Z,-0.56
2018-12-24T20:14:38.880Z,-0.61
2018-12-24T20:17:09.304Z,-0.59
2018-12-24T20:19:39.893Z,-0.60
2018-12-24T20:22:10.478Z,-0.60
2018-12-24T20:24:40.924Z,-0.58
2018-12-24T20:27:11.410Z,-0.61
2018-12-24T20:29:41.823Z,-0.65
2018-12-24T20:32:12.482Z,-0.62
2018-12-24T20:34:43.000Z,-0.61
2018-12-24T20:37:13.474Z,-0.59
2018-12-24T20:39:44.300Z,-0.60
2018-12-24T20:42:14.933Z,-0.60
2018-12-24T20:44:45.550Z,-0.59
2018-12-24T20:47:16.106Z,-0.57
2018-12-24T20:49:46.540Z,-0.56
2018-12-24T20:52:18.904Z,-0.56
2018-12-24T20:54:49.363Z,-0.53
2018-12-24T20:57:19.783Z,-0.54
2018-12-24T20:59:50.329Z,-0.51
2018-12-24T21:02:20.863Z,-0.51
2018-12-24T21:04:51.473Z,-0.50
2018-12-24T21:07:21.915Z,-0.46
2018-12-24T21:09:52.525Z,-0.47
2018-12-24T21:12:22.935Z,-0.48
2018-12-24T21:14:53.559Z,-0.41
2018-12-24T21:17:24.034Z,-0.42
2018-12-24T21:19:54.462Z,-0.41
2018-12-24T21:22:24.971Z,-0.39
2018-12-24T21:24:55.422Z,-0.38
2018-12-24T21:27:25.999Z,-0.36
2018-12-24T21:29:56.536Z,-0.36
2018-12-24T21:32:26.985Z,-0.32
2018-12-24T21:34:57.655Z,-0.33
2018-12-24T21:37:28.295Z,-0.32
2018-12-24T21:39:59.195Z,-0.31
2018-12-24T21:42:29.745Z,-0.34
2018-12-24T21:45:00.335Z,-0.32
2018-12-24T21:47:30.854Z,-0.32
2018-12-24T21:50:01.411Z,-0.29
2018-12-24T21:52:31.835Z,-0.31
2018-12-24T21:55:02.376Z,-0.33
2018-12-24T21:57:32.819Z,-0.31
2018-12-24T22:00:03.755Z,-0.30
2018-12-24T22:02:34.167Z,-0.33
2018-12-24T22:05:04.709Z,-0.31
2018-12-24T22:07:35.095Z,-0.31
2018-12-24T22:10:06.045Z,-0.28
2018-12-24T22:12:36.553Z,-0.31
2018-12-24T22:15:07.176Z,-0.32
2018-12-24T22:17:37.705Z,-0.31
2018-12-24T22:20:08.335Z,-0.29
2018-12-24T22:22:38.979Z,-0.28
2018-12-24T22:25:09.593Z,-0.28
2018-12-24T22:27:40.095Z,-0.28
2018-12-24T22:30:10.706Z,-0.31
2018-12-24T22:32:41.235Z,-0.29
2018-12-24T22:35:11.660Z,-0.31
2018-12-24T22:37:42.435Z,-0.30
2018-12-24T22:40:12.883Z,-0.33
2018-12-24T22:42:43.309Z,-0.30
2018-12-24T22:45:14.260Z,-0.31
2018-12-24T22:47:44.703Z,-0.31
2018-12-24T22:50:15.318Z,-0.28
2018-12-24T22:52:45.908Z,-0.29
2018-12-24T22:55:16.454Z,-0.31
2018-12-24T22:57:46.893Z,-0.27
2018-12-24T23:00:32.401Z,-0.23
2018-12-24T23:03:03.088Z,-0.23
2018-12-24T23:05:33.563Z,-0.24
2018-12-24T23:08:04.185Z,-0.25
2018-12-24T23:10:34.814Z,-0.22
2018-12-24T23:13:05.464Z,-0.23
2018-12-24T23:15:36.031Z,-0.21
2018-12-24T23:18:06.656Z,-0.21
2018-12-24T23:20:37.184Z,-0.25
2018-12-24T23:23:07.687Z,-0.21
2018-12-24T23:25:38.199Z,-0.17
2018-12-24T23:28:08.775Z,-0.19
2018-12-24T23:30:39.236Z,-0.17
2018-12-24T23:33:09.802Z,-0.18
2018-12-24T23:35:40.623Z,-0.16
2018-12-24T23:38:11.864Z,-0.17
2018-12-24T23:40:42.460Z,-0.14
2018-12-24T23:43:13.106Z,-0.17
2018-12-24T23:45:43.533Z,-0.16
2018-12-24T23:48:14.036Z,-0.19
2018-12-24T23:50:44.523Z,-0.17
2018-12-24T23:53:15.053Z,-0.12
2018-12-24T23:55:45.553Z,-0.13
2018-12-24T23:58:16.015Z,-0.10
